Time;durP1;ratioP1;P1;durP2;ratioP2;P2;SDS_P1;SDS_P2;PMS_P1;PMS_P2;Temp;Humidity;BMP_temperature;BMP_pressure;BME280_temperature;BME280_humidity;BME280_pressure;Samples;Min_cycle;Max_cycle;Signal;HPM_P1;HPM_P2
2022/05/12 04:00:50;;;;;;;2.97;2.47;;;18.30;99.90;;;-143.14;100.00;56521.75;5790462;23;20555;-73
2022/05/12 04:03:17;;;;;;;3.17;2.87;;;18.30;99.90;;;-143.14;100.00;56521.75;4967370;28;20453;-73
2022/05/12 04:05:45;;;;;;;5.37;2.60;;;18.30;99.90;;;-143.14;100.00;56521.75;4965584;28;20966;-73
2022/05/12 04:08:12;;;;;;;11.67;2.57;;;18.30;99.90;;;-143.14;100.00;56521.75;4970279;28;20453;-73
2022/05/12 04:10:39;;;;;;;5.13;2.40;;;18.30;99.90;;;-143.14;100.00;56521.75;4970380;28;20877;-73
2022/05/12 04:13:07;;;;;;;4.00;2.50;;;18.40;99.90;;;-143.14;100.00;56521.75;4970149;28;20532;-74
2022/05/12 04:15:34;;;;;;;5.97;2.53;;;18.40;99.90;;;-143.14;100.00;56521.75;4969543;28;20456;-73
2022/05/12 04:18:06;;;;;;;6.13;2.73;;;18.40;99.90;;;-143.14;100.00;56521.75;4970252;28;20925;-73
2022/05/12 04:20:36;;;;;;;7.37;3.03;;;18.40;99.90;;;-143.14;100.00;56521.75;4968334;28;20559;-73
2022/05/12 04:23:04;;;;;;;3.10;2.27;;;18.40;99.90;;;-143.14;100.00;56521.75;4970377;28;20529;-73
2022/05/12 04:25:32;;;;;;;5.23;2.70;;;18.40;99.90;;;-143.14;100.00;56521.75;4969059;28;20492;-73
2022/05/12 04:27:59;;;;;;;4.30;2.60;;;18.40;99.90;;;-143.14;100.00;56521.75;4970168;28;20798;-74
2022/05/12 04:30:27;;;;;;;4.90;2.23;;;18.40;99.90;;;-143.14;100.00;56521.75;4969705;28;20683;-74
2022/05/12 04:35:09;;;;;;;4.93;2.40;;;18.40;99.90;;;-143.14;100.00;56521.75;4969329;28;20458;-74
2022/05/12 04:35:43;;;;;;;2.30;2.10;;;18.40;99.90;;;-143.14;100.00;56521.75;4967807;28;20535;-74
2022/05/12 04:38:11;;;;;;;2.20;1.90;;;18.40;99.90;;;-143.14;100.00;56521.75;4968862;28;20464;-74
2022/05/12 04:40:39;;;;;;;8.53;2.57;;;18.40;99.90;;;-143.14;100.00;56521.75;4968525;28;21063;-75
2022/05/12 04:43:07;;;;;;;4.40;2.60;;;18.40;99.90;;;-143.14;100.00;56521.75;4968592;28;20449;-74
2022/05/12 04:45:36;;;;;;;8.90;2.83;;;18.40;99.90;;;-143.14;100.00;56521.75;4968166;28;20882;-74
2022/05/12 04:48:04;;;;;;;4.80;2.30;;;18.40;99.90;;;-143.14;100.00;56521.75;4968249;28;20459;-76
2022/05/12 04:50:35;;;;;;;3.00;2.50;;;18.40;99.90;;;-143.14;100.00;56521.75;4969006;28;20473;-68
2022/05/12 04:53:04;;;;;;;7.13;2.40;;;18.40;99.90;;;-143.14;100.00;56521.75;4974899;28;20447;-69
2022/05/12 04:55:33;;;;;;;3.10;2.03;;;18.40;99.90;;;-143.14;100.00;56521.75;4976279;28;20560;-68
2022/05/12 04:58:01;;;;;;;3.53;2.33;;;18.30;99.90;;;-143.14;100.00;56521.75;4974954;28;21037;-74
2022/05/12 05:00:33;;;;;;;7.03;2.80;;;18.30;99.90;;;-143.14;100.00;56521.75;4967917;28;20621;-74
2022/05/12 05:03:00;;;;;;;5.43;2.93;;;18.30;99.90;;;-143.14;100.00;56521.75;4968272;28;20460;-74
2022/05/12 05:05:28;;;;;;;6.97;2.73;;;18.30;99.90;;;-143.14;100.00;56521.75;4967096;28;20850;-74
2022/05/12 05:07:56;;;;;;;11.80;2.77;;;18.30;99.90;;;-143.14;100.00;56521.75;4967191;28;20463;-76
2022/05/12 05:10:25;;;;;;;9.73;2.37;;;18.30;99.90;;;-143.14;100.00;56521.75;4968971;28;20458;-74
2022/05/12 05:12:53;;;;;;;4.70;2.80;;;18.30;99.90;;;-143.14;100.00;56521.75;4968837;28;20945;-74
2022/05/12 05:15:23;;;;;;;5.00;2.50;;;18.30;99.90;;;-143.14;100.00;56521.75;4968230;28;21030;-75
2022/05/12 05:17:51;;;;;;;8.30;2.33;;;18.20;99.90;;;-143.14;100.00;56521.75;4968560;28;20492;-75
2022/05/12 05:20:22;;;;;;;6.43;2.40;;;18.30;99.90;;;-143.14;100.00;56521.75;4968680;28;20463;-75
2022/05/12 05:22:50;;;;;;;4.17;2.67;;;18.30;99.90;;;-143.14;100.00;56521.75;4968613;28;20455;-75
2022/05/12 05:25:18;;;;;;;3.57;2.17;;;18.30;99.90;;;-143.14;100.00;56521.75;4968277;28;20497;-75
2022/05/12 05:27:47;;;;;;;3.23;2.10;;;18.30;99.90;;;-143.14;100.00;56521.75;4968383;28;20473;-74
2022/05/12 05:30:18;;;;;;;8.00;2.43;;;18.30;99.90;;;-143.14;100.00;56521.75;4968618;28;20522;-74
2022/05/12 05:32:46;;;;;;;5.27;2.77;;;18.30;99.90;;;-143.14;100.00;56521.75;4968803;28;20463;-75
2022/05/12 05:35:13;;;;;;;5.47;2.10;;;18.20;99.90;;;-143.14;100.00;56521.75;4968313;28;20861;-74
2022/05/12 05:37:41;;;;;;;3.97;3.23;;;18.30;99.90;;;-143.14;100.00;56521.75;4967992;28;20539;-77
2022/05/12 05:40:13;;;;;;;8.10;2.60;;;18.30;99.90;;;-143.14;100.00;56521.75;4968335;28;20467;-75
2022/05/12 05:42:46;;;;;;;7.10;2.73;;;18.30;99.90;;;-143.14;100.00;56521.75;4954006;28;20468;-75
2022/05/12 05:45:17;;;;;;;8.63;2.90;;;18.30;99.90;;;-143.14;100.00;56521.75;4949403;29;20480;-74
2022/05/12 05:47:57;;;;;;;4.97;1.97;;;18.30;99.90;;;-143.14;100.00;56521.75;4951003;29;20909;-75
2022/05/12 05:50:29;;;;;;;6.40;2.60;;;18.30;99.90;;;-143.14;100.00;56521.75;4959137;28;20926;-75
2022/05/12 05:55:42;;;;;;;5.10;2.20;;;18.30;99.90;;;-143.14;100.00;56521.75;4964088;28;20435;-76
2022/05/12 05:58:11;;;;;;;4.97;2.30;;;18.30;99.90;;;-143.14;100.00;56521.75;4949379;28;20469;-75
2022/05/12 06:00:39;;;;;;;8.33;1.90;;;18.30;99.90;;;-143.14;100.00;56521.75;4948942;28;20857;-75
2022/05/12 06:03:06;;;;;;;6.53;1.93;;;18.40;99.90;;;-143.14;100.00;56521.75;4948864;28;20464;-74
2022/05/12 06:05:34;;;;;;;8.17;2.60;;;18.40;99.90;;;-143.14;100.00;56521.75;4948270;28;20870;-67
2022/05/12 06:08:01;;;;;;;3.10;2.20;;;18.40;99.90;;;-143.14;100.00;56521.75;4949204;28;20827;-68
2022/05/12 06:10:29;;;;;;;3.87;2.13;;;18.40;99.90;;;-143.14;100.00;56521.75;4948902;28;20456;-68
2022/05/12 06:12:57;;;;;;;3.97;2.37;;;18.40;99.90;;;-143.14;100.00;56521.75;4949111;28;20454;-67
2022/05/12 06:15:26;;;;;;;4.87;2.30;;;18.40;99.90;;;-143.14;100.00;56521.75;4948247;28;20618;-67
2022/05/12 06:17:54;;;;;;;6.00;2.03;;;18.40;99.90;;;-143.14;100.00;56521.75;4948951;28;20453;-68
2022/05/12 06:20:22;;;;;;;4.40;2.00;;;18.40;99.90;;;-143.14;100.00;56521.75;4949076;28;20454;-68
2022/05/12 06:22:50;;;;;;;3.40;1.93;;;18.50;99.90;;;-143.14;100.00;56521.75;4948193;28;20893;-75
2022/05/12 06:25:19;;;;;;;8.17;2.10;;;18.50;99.90;;;-143.14;100.00;56521.75;4948111;28;20501;-75
2022/05/12 06:27:46;;;;;;;6.97;1.80;;;18.50;99.90;;;-143.14;100.00;56521.75;4948372;28;20459;-74
2022/05/12 06:30:15;;;;;;;5.50;1.90;;;18.50;99.90;;;-143.14;100.00;56521.75;4947565;28;20454;-74
2022/05/12 06:32:46;;;;;;;5.23;2.30;;;18.60;99.90;;;-143.14;100.00;56521.75;4948271;28;20461;-76
2022/05/12 06:35:17;;;;;;;3.70;2.13;;;18.60;99.90;;;-143.14;100.00;56521.75;4948036;28;20445;-74
2022/05/12 06:37:44;;;;;;;3.07;2.00;;;18.70;99.90;;;-143.14;100.00;56521.75;4948610;28;20466;-68
2022/05/12 06:40:13;;;;;;;2.40;1.67;;;18.70;99.90;;;-143.14;100.00;56521.75;4948042;28;20476;-68
2022/05/12 06:42:41;;;;;;;5.80;2.13;;;18.70;99.90;;;-143.14;100.00;56521.75;4948114;28;20464;-68
2022/05/12 06:45:10;;;;;;;8.83;2.30;;;18.70;99.90;;;-143.14;100.00;56521.75;4947824;28;20490;-68
2022/05/12 06:47:38;;;;;;;2.50;1.83;;;18.70;99.90;;;-143.14;100.00;56521.75;4948453;28;20450;-68
2022/05/12 06:50:07;;;;;;;10.60;2.07;;;18.80;99.90;;;-143.14;100.00;56521.75;4948371;28;20465;-68
2022/05/12 06:52:35;;;;;;;6.40;2.10;;;18.80;99.90;;;-143.14;100.00;56521.75;4948263;28;20474;-67
2022/05/12 06:55:02;;;;;;;4.20;2.03;;;18.80;99.90;;;-143.14;100.00;56521.75;4947403;28;20462;-68
2022/05/12 06:57:30;;;;;;;4.53;2.00;;;18.90;99.90;;;-143.14;100.00;56521.75;4947725;28;20942;-67
2022/05/12 06:59:58;;;;;;;7.00;2.20;;;18.90;99.90;;;-143.14;100.00;56521.75;4948154;28;20505;-67
2022/05/12 07:02:25;;;;;;;6.23;2.47;;;18.90;99.90;;;-143.14;100.00;56521.75;4947883;28;20484;-75
2022/05/12 07:04:53;;;;;;;2.63;2.10;;;19.00;99.90;;;-143.14;100.00;56521.75;4946092;28;20620;-75
2022/05/12 07:07:22;;;;;;;3.60;1.70;;;19.00;99.90;;;-143.14;100.00;56521.75;4946751;28;20457;-75
2022/05/12 07:09:52;;;;;;;3.57;2.07;;;19.00;99.90;;;-143.14;100.00;56521.75;4947463;28;20468;-75
2022/05/12 07:12:20;;;;;;;3.67;1.67;;;19.00;99.90;;;-143.14;100.00;56521.75;4948021;28;20870;-75
2022/05/12 07:14:47;;;;;;;6.63;2.00;;;18.90;99.90;;;-143.14;100.00;56521.75;4947079;28;20452;-75
2022/05/12 07:17:20;;;;;;;3.57;1.80;;;19.00;99.90;;;-143.14;100.00;56521.75;4947729;28;20461;-75
2022/05/12 07:19:48;;;;;;;8.00;1.90;;;19.00;99.90;;;-143.14;100.00;56521.75;4947866;28;20442;-75
2022/05/12 07:27:45;;;;;;;10.20;2.20;;;19.00;99.90;;;-143.14;100.00;56521.75;4947469;29;20437;-75
2022/05/12 07:30:14;;;;;;;6.20;2.17;;;19.00;99.90;;;-143.14;100.00;56521.75;4947564;28;20544;-76
2022/05/12 07:32:40;;;;;;;5.03;2.30;;;19.00;99.90;;;-143.14;100.00;56521.75;4947617;28;20568;-76
2022/05/12 07:35:09;;;;;;;2.73;1.90;;;19.00;99.90;;;-143.14;100.00;56521.75;4947151;28;20450;-75
2022/05/12 07:37:37;;;;;;;2.37;1.60;;;19.00;99.90;;;-143.14;100.00;56521.75;4947427;28;20510;-75
2022/05/12 07:40:08;;;;;;;4.80;1.90;;;18.90;99.90;;;-143.14;100.00;56521.75;4947364;28;20489;-75
2022/05/12 07:42:35;;;;;;;5.60;2.17;;;18.90;99.90;;;-143.14;100.00;56521.75;4947619;28;20483;-75
2022/05/12 07:45:04;;;;;;;5.00;2.17;;;18.90;99.90;;;-143.14;100.00;56521.75;4946353;28;20499;-74
2022/05/12 07:47:31;;;;;;;3.97;1.73;;;18.90;99.90;;;-143.14;100.00;56521.75;4947640;28;20461;-75
2022/05/12 07:49:59;;;;;;;3.20;1.50;;;18.80;99.90;;;-143.14;100.00;56521.75;4946334;28;20464;-75
2022/05/12 07:52:27;;;;;;;5.10;1.77;;;18.80;99.90;;;-143.14;100.00;56521.75;4946839;28;20484;-74
2022/05/12 07:54:54;;;;;;;3.37;2.17;;;18.90;99.90;;;-143.14;100.00;56521.75;4945971;28;20552;-75
2022/05/12 07:57:23;;;;;;;4.73;1.60;;;18.90;99.90;;;-143.14;100.00;56521.75;4946311;28;20456;-75
2022/05/12 07:59:50;;;;;;;5.20;2.23;;;19.00;99.90;;;-143.14;100.00;56521.75;4946312;28;20682;-75
2022/05/12 08:02:18;;;;;;;5.50;1.93;;;19.00;99.90;;;-143.14;100.00;56521.75;4945886;28;20576;-75
2022/05/12 08:04:46;;;;;;;3.07;1.73;;;19.10;99.90;;;-143.14;100.00;56521.75;4945708;28;20516;-75
2022/05/12 08:07:13;;;;;;;5.33;1.77;;;19.10;99.90;;;-143.14;100.00;56521.75;4946813;28;20461;-75
2022/05/12 08:09:40;;;;;;;9.93;2.43;;;19.10;99.90;;;-143.14;100.00;56521.75;4946175;28;20453;-75
2022/05/12 08:12:08;;;;;;;2.80;1.73;;;19.20;99.90;;;-143.14;100.00;56521.75;4946220;28;20675;-75
2022/05/12 08:14:37;;;;;;;4.73;2.00;;;19.20;99.90;;;-143.14;100.00;56521.75;4945769;28;20472;-75
2022/05/12 08:17:04;;;;;;;3.83;1.87;;;19.30;99.90;;;-143.14;100.00;56521.75;4946610;28;20484;-75
2022/05/12 08:19:34;;;;;;;4.17;2.20;;;19.40;99.90;;;-143.14;100.00;56521.75;4946686;28;20453;-75
2022/05/12 08:22:01;;;;;;;10.03;2.00;;;19.60;99.90;;;-143.14;100.00;56521.75;4947197;28;20575;-75
2022/05/12 08:24:28;;;;;;;3.00;1.70;;;19.60;99.90;;;-143.14;100.00;56521.75;4945806;28;20460;-76
2022/05/12 08:26:55;;;;;;;3.23;1.93;;;19.80;99.90;;;-143.14;100.00;56521.75;4946851;28;20501;-74
2022/05/12 08:29:23;;;;;;;3.43;1.67;;;19.80;99.90;;;-143.14;100.00;56521.75;4947264;28;20453;-75
2022/05/12 08:31:51;;;;;;;6.30;1.90;;;20.00;99.90;;;-143.14;100.00;56521.75;4947049;28;20500;-74
2022/05/12 08:34:18;;;;;;;4.13;2.00;;;20.10;99.90;;;-143.14;100.00;56521.75;4946615;28;20450;-75
2022/05/12 08:36:45;;;;;;;11.63;2.40;;;20.20;99.90;;;-143.14;100.00;56521.75;4946800;28;20453;-75
2022/05/12 08:39:12;;;;;;;4.20;1.70;;;20.30;99.90;;;-143.14;100.00;56521.75;4946955;28;21137;-75
2022/05/12 08:41:47;;;;;;;7.50;1.80;;;20.50;99.90;;;-143.14;100.00;56521.75;4947166;28;20564;-75
2022/05/12 08:44:19;;;;;;;4.50;1.90;;;20.60;99.90;;;-143.14;100.00;56521.75;4946344;28;20453;-76
2022/05/12 08:46:53;;;;;;;3.20;1.80;;;20.70;99.90;;;-143.14;100.00;56521.75;4946622;28;20497;-75
2022/05/12 08:49:30;;;;;;;4.47;2.10;;;20.70;99.90;;;-143.14;100.00;56521.75;4947007;28;20465;-75
2022/05/12 08:52:11;;;;;;;3.83;2.00;;;20.80;99.90;;;-143.14;100.00;56521.75;4946991;28;20539;-75
2022/05/12 08:54:47;;;;;;;4.10;2.10;;;21.00;99.90;;;-143.14;100.00;56521.75;4950007;28;20438;-74
2022/05/12 08:57:31;;;;;;;4.73;2.23;;;21.00;99.90;;;-143.14;100.00;56521.75;4950522;28;20441;-75
2022/05/12 09:00:01;;;;;;;4.03;2.13;;;21.20;99.90;;;-143.14;100.00;56521.75;4950292;28;20576;-76
2022/05/12 09:02:42;;;;;;;3.90;1.67;;;21.30;99.90;;;-143.14;100.00;56521.75;4949722;28;20580;-75
2022/05/12 09:05:14;;;;;;;2.27;1.93;;;21.30;99.90;;;-143.14;100.00;56521.75;4949556;28;20595;-75
2022/05/12 09:07:55;;;;;;;1.93;1.53;;;21.50;99.90;;;-143.14;100.00;56521.75;4950502;28;20556;-75
2022/05/12 09:10:48;;;;;;;5.23;1.90;;;21.60;99.90;;;-143.14;100.00;56521.75;4950315;28;20440;-75
2022/05/12 09:13:24;;;;;;;6.43;2.20;;;21.70;99.90;;;-143.14;100.00;56521.75;4949746;28;20958;-75
2022/05/12 09:16:06;;;;;;;4.00;1.87;;;21.80;99.90;;;-143.14;100.00;56521.75;4949704;28;20434;-75
2022/05/12 09:18:36;;;;;;;4.03;2.00;;;22.00;99.90;;;-143.14;100.00;56521.75;4949702;28;20914;-76
2022/05/12 09:21:09;;;;;;;3.53;2.03;;;22.10;99.90;;;-143.14;100.00;56521.75;4949484;28;20492;-75
2022/05/12 09:23:37;;;;;;;6.33;1.80;;;22.20;99.90;;;-143.14;100.00;56521.75;4950135;28;20544;-76
2022/05/12 09:26:39;;;;;;;7.00;2.30;;;22.30;99.90;;;-143.14;100.00;56521.75;4949045;28;21021;-75
2022/05/12 09:29:17;;;;;;;4.17;2.47;;;22.30;99.90;;;-143.14;100.00;56521.75;4949554;28;20468;-77
2022/05/12 09:31:49;;;;;;;3.67;1.93;;;22.30;99.90;;;-143.14;100.00;56521.75;4949463;28;20484;-77
2022/05/12 09:34:31;;;;;;;3.10;2.27;;;22.50;99.90;;;-143.14;100.00;56521.75;4948735;28;20464;-76
2022/05/12 09:37:17;;;;;;;5.23;2.73;;;22.60;99.90;;;-143.14;100.00;56521.75;4949304;29;20468;-75
2022/05/12 09:39:48;;;;;;;3.20;2.30;;;22.50;99.90;;;-143.14;100.00;56521.75;4949290;28;20449;-76
2022/05/12 09:42:39;;;;;;;5.13;2.00;;;22.60;99.90;;;-143.14;100.00;56521.75;4949570;28;20561;-75
2022/05/12 09:45:23;;;;;;;4.03;2.27;;;22.70;99.90;;;-143.14;100.00;56521.75;4948696;28;20497;-75
2022/05/12 09:47:50;;;;;;;6.10;2.97;;;22.80;99.90;;;-143.14;100.00;56521.75;4949366;28;20552;-75
2022/05/12 09:50:28;;;;;;;9.90;3.00;;;22.80;99.90;;;-143.14;100.00;56521.75;4949230;28;20886;-76
2022/05/12 09:53:02;;;;;;;3.60;2.50;;;22.70;99.90;;;-143.14;100.00;56521.75;4949630;28;20462;-75
2022/05/12 09:55:32;;;;;;;6.97;2.50;;;22.70;99.90;;;-143.14;100.00;56521.75;4948705;28;20659;-72
2022/05/12 09:58:03;;;;;;;7.53;2.97;;;22.70;99.90;;;-143.14;100.00;56521.75;4949327;28;20588;-72
2022/05/12 10:00:40;;;;;;;2.67;2.33;;;22.80;99.90;;;-143.14;100.00;56521.75;4948909;28;20457;-73
2022/05/12 10:09:09;;;;;;;6.83;3.07;;;23.00;99.90;;;-143.14;100.00;56521.75;4948663;29;20452;-72
2022/05/12 10:11:46;;;;;;;7.20;2.77;;;23.00;99.90;;;-143.14;100.00;56521.75;4949285;28;20488;-72
2022/05/12 10:14:30;;;;;;;5.50;3.10;;;23.00;99.90;;;-143.14;100.00;56521.75;4948608;28;20536;-73
2022/05/12 10:17:01;;;;;;;3.90;2.70;;;22.90;99.90;;;-143.14;100.00;56521.75;4947649;28;20455;-73
2022/05/12 10:19:29;;;;;;;6.00;2.77;;;22.90;99.90;;;-143.14;100.00;56521.75;4946591;28;21102;-72
2022/05/12 10:22:12;;;;;;;8.70;2.50;;;23.00;99.90;;;-143.14;100.00;56521.75;4948717;28;20564;-72
2022/05/12 10:24:55;;;;;;;4.97;2.30;;;23.20;99.90;;;-143.14;100.00;56521.75;4947940;28;20445;-69
2022/05/12 10:27:48;;;;;;;6.53;2.37;;;23.40;99.90;;;-143.14;100.00;56521.75;4948858;28;20560;-76
2022/05/12 10:30:35;;;;;;;3.33;2.40;;;23.60;99.90;;;-143.14;100.00;56521.75;4948656;28;20508;-75
2022/05/12 10:33:28;;;;;;;3.70;2.77;;;23.60;99.90;;;-143.14;100.00;56521.75;4948582;28;20479;-74
2022/05/12 10:36:15;;;;;;;4.80;2.70;;;23.60;99.90;;;-143.14;100.00;56521.75;4947664;28;20446;-75
2022/05/12 10:38:58;;;;;;;3.17;2.50;;;23.60;99.90;;;-143.14;100.00;56521.75;4949131;28;20453;-75
2022/05/12 10:41:35;;;;;;;5.00;2.70;;;23.60;99.90;;;-143.14;100.00;56521.75;4948580;28;20929;-74
2022/05/12 10:44:35;;;;;;;6.50;2.83;;;23.70;99.90;;;-143.14;100.00;56521.75;4948023;28;20964;-75
2022/05/12 10:47:18;;;;;;;6.47;3.20;;;23.60;99.90;;;-143.14;100.00;56521.75;4948134;28;20878;-71
2022/05/12 10:49:59;;;;;;;6.10;2.50;;;23.70;99.90;;;-143.14;100.00;56521.75;4948358;28;20464;-75
2022/05/12 10:52:49;;;;;;;2.97;2.60;;;23.60;99.90;;;-143.14;100.00;56521.75;4948229;28;20477;-75
2022/05/12 10:55:28;;;;;;;8.57;3.07;;;23.60;99.90;;;-143.14;100.00;56521.75;4947670;28;20453;-74
2022/05/12 10:58:21;;;;;;;4.53;2.80;;;23.60;99.90;;;-143.14;100.00;56521.75;4948358;28;20465;-74
2022/05/12 11:01:10;;;;;;;6.50;3.23;;;23.60;99.90;;;-143.14;100.00;56521.75;4948209;28;20525;-75
2022/05/12 11:03:44;;;;;;;5.90;2.87;;;23.60;99.90;;;-143.14;100.00;56521.75;4948325;28;20920;-75
2022/05/12 11:06:16;;;;;;;6.80;2.70;;;23.70;99.90;;;-143.14;100.00;56521.75;4947468;28;20596;-75
2022/05/12 11:08:50;;;;;;;6.80;2.77;;;23.90;99.90;;;-143.14;100.00;56521.75;4947855;28;20529;-75
2022/05/12 11:11:23;;;;;;;5.93;2.83;;;23.90;99.90;;;-143.14;100.00;56521.75;4947986;28;20485;-74
2022/05/12 11:14:02;;;;;;;4.67;2.80;;;24.10;99.90;;;-143.14;100.00;56521.75;4948356;28;20445;-74
2022/05/12 11:16:37;;;;;;;3.93;2.70;;;24.30;99.90;;;-143.14;100.00;56521.75;4947352;28;20977;-75
2022/05/12 11:19:17;;;;;;;5.10;2.57;;;24.30;99.90;;;-143.14;100.00;56521.75;4946579;28;20459;-74
2022/05/12 11:22:03;;;;;;;3.90;2.57;;;24.20;99.90;;;-143.14;100.00;56521.75;4946974;28;20480;-75
2022/05/12 11:24:46;;;;;;;5.73;2.83;;;24.30;99.90;;;-143.14;100.00;56521.75;4946205;28;20468;-75
2022/05/12 11:27:45;;;;;;;4.53;2.90;;;24.30;99.90;;;-143.14;100.00;56521.75;4946867;28;20565;-75
2022/05/12 11:30:35;;;;;;;4.40;3.00;;;24.10;99.90;;;-143.14;100.00;56521.75;4948722;28;20541;-75
2022/05/12 11:33:22;;;;;;;9.33;3.27;;;24.00;99.90;;;-143.14;100.00;56521.75;4955381;28;20449;-76
2022/05/12 11:35:54;;;;;;;5.10;3.07;;;24.10;99.90;;;-143.14;100.00;56521.75;4946925;28;20465;-75
2022/05/12 11:38:53;;;;;;;5.47;2.97;;;24.00;99.90;;;-143.14;100.00;56521.75;4946814;28;20992;-76
2022/05/12 11:41:43;;;;;;;5.17;2.97;;;24.00;99.90;;;-143.14;100.00;56521.75;4946966;28;20524;-76
2022/05/12 11:44:38;;;;;;;4.17;2.60;;;23.90;99.90;;;-143.14;100.00;56521.75;4945530;29;20459;-76
2022/05/12 11:47:55;;;;;;;7.13;3.10;;;23.90;99.90;;;-143.14;100.00;56521.75;4946759;29;21090;-76
2022/05/12 11:51:05;;;;;;;4.13;3.00;;;23.80;99.90;;;-143.14;100.00;56521.75;4946653;29;20897;-75
2022/05/12 11:53:53;;;;;;;4.47;3.30;;;23.90;99.90;;;-143.14;100.00;56521.75;4944263;29;20473;-76
2022/05/12 11:56:40;;;;;;;8.23;2.87;;;23.80;99.90;;;-143.14;100.00;56521.75;4945614;29;20462;-75
2022/05/12 11:59:50;;;;;;;5.47;2.47;;;23.70;99.90;;;-143.14;100.00;56521.75;4946736;29;20461;-75
2022/05/12 12:02:48;;;;;;;4.97;2.77;;;23.70;99.90;;;-143.14;100.00;56521.75;4946360;29;20580;-73
2022/05/12 12:06:02;;;;;;;9.17;3.47;;;23.90;99.90;;;-143.14;100.00;56521.75;4946081;28;20846;-73
2022/05/12 12:08:47;;;;;;;5.53;2.60;;;23.90;99.90;;;-143.14;100.00;56521.75;4924265;28;20512;-76
2022/05/12 12:11:29;;;;;;;4.87;2.87;;;24.10;99.90;;;-143.14;100.00;56521.75;4948222;28;20476;-76
2022/05/12 12:14:00;;;;;;;7.27;2.93;;;24.20;99.90;;;-143.14;100.00;56521.75;4946686;29;20532;-75
2022/05/12 12:16:50;;;;;;;10.90;2.90;;;24.50;99.90;;;-143.14;100.00;56521.75;4944703;28;21022;-70
2022/05/12 12:19:46;;;;;;;4.10;3.07;;;24.60;99.90;;;-143.14;100.00;56521.75;4946902;29;20484;-70
2022/05/12 12:22:22;;;;;;;5.03;3.17;;;24.70;99.90;;;-143.14;100.00;56521.75;4946809;29;20465;-75
2022/05/12 12:25:15;;;;;;;3.43;2.20;;;24.80;99.90;;;-143.14;100.00;56521.75;4946521;29;20485;-75
2022/05/12 12:28:31;;;;;;;5.43;2.63;;;24.80;99.90;;;-143.14;100.00;56521.75;4948398;28;20505;-75
2022/05/12 12:31:05;;;;;;;3.83;3.13;;;24.80;99.90;;;-143.14;100.00;56521.75;4948678;29;21072;-76
2022/05/12 12:34:18;;;;;;;6.80;2.90;;;24.70;99.90;;;-143.14;100.00;56521.75;4948979;28;20500;-75
2022/05/12 12:37:01;;;;;;;5.67;3.07;;;24.60;99.90;;;-143.14;100.00;56521.75;4950131;28;20828;-75
2022/05/12 12:39:48;;;;;;;5.07;3.10;;;24.60;99.90;;;-143.14;100.00;56521.75;4962630;28;20547;-75
2022/05/12 12:42:39;;;;;;;4.43;3.30;;;24.50;99.90;;;-143.14;100.00;56521.75;4969385;28;20479;-75
2022/05/12 12:45:14;;;;;;;3.30;2.90;;;24.50;99.90;;;-143.14;100.00;56521.75;4968773;28;20444;-75
2022/05/12 12:47:50;;;;;;;7.40;3.00;;;24.40;99.90;;;-143.14;100.00;56521.75;4969524;28;20498;-75
2022/05/12 12:50:33;;;;;;;3.50;3.20;;;24.20;99.90;;;-143.14;100.00;56521.75;4968675;28;20484;-74
2022/05/12 12:53:02;;;;;;;3.63;2.43;;;24.30;99.90;;;-143.14;100.00;56521.75;4949840;28;20455;-74
2022/05/12 12:58:36;;;;;;;5.13;2.50;;;24.40;99.90;;;-143.14;100.00;56521.75;4961904;28;20435;-74
2022/05/12 13:01:13;;;;;;;4.97;2.70;;;24.50;99.90;;;-143.14;100.00;56521.75;4969097;28;20484;-74
2022/05/12 13:03:48;;;;;;;3.20;2.90;;;24.60;99.90;;;-143.14;100.00;56521.75;4969357;28;20865;-74
2022/05/12 13:06:25;;;;;;;3.97;2.77;;;24.70;99.90;;;-143.14;100.00;56521.75;4968943;28;20821;-74
2022/05/12 13:09:03;;;;;;;5.10;2.77;;;24.70;99.90;;;-143.14;100.00;56521.75;4969288;28;20487;-74
2022/05/12 13:11:30;;;;;;;5.00;3.13;;;24.80;99.90;;;-143.14;100.00;56521.75;4969399;28;20563;-74
2022/05/12 13:13:58;;;;;;;8.13;3.30;;;24.90;99.90;;;-143.14;100.00;56521.75;4968842;28;20511;-74
2022/05/12 13:16:30;;;;;;;7.50;3.03;;;25.00;99.90;;;-143.14;100.00;56521.75;4968194;28;20492;-75
2022/05/12 13:18:58;;;;;;;3.80;2.30;;;25.20;99.90;;;-143.14;100.00;56521.75;4968983;28;20739;-74
2022/05/12 13:21:32;;;;;;;2.60;2.40;;;25.40;99.90;;;-143.14;100.00;56521.75;4968532;28;20572;-74
2022/05/12 13:24:12;;;;;;;5.40;3.07;;;25.30;99.90;;;-143.14;100.00;56521.75;4968606;28;20459;-74
2022/05/12 13:26:43;;;;;;;4.87;3.00;;;25.30;99.90;;;-143.14;100.00;56521.75;4968741;28;21082;-74
2022/05/12 13:29:22;;;;;;;3.63;2.73;;;25.20;99.90;;;-143.14;100.00;56521.75;4968874;28;20463;-74
2022/05/12 13:31:56;;;;;;;8.40;2.90;;;25.10;99.90;;;-143.14;100.00;56521.75;4968624;28;20734;-74
2022/05/12 13:34:27;;;;;;;4.00;2.77;;;25.20;99.90;;;-143.14;100.00;56521.75;4967798;28;20467;-74
2022/05/12 13:36:59;;;;;;;4.50;2.77;;;25.10;99.90;;;-143.14;100.00;56521.75;4968378;28;20544;-74
2022/05/12 13:39:50;;;;;;;4.40;2.97;;;25.20;99.90;;;-143.14;100.00;56521.75;4967703;28;20893;-74
2022/05/12 13:42:29;;;;;;;5.83;2.70;;;25.10;99.90;;;-143.14;100.00;56521.75;4967987;28;20531;-74
2022/05/12 13:44:59;;;;;;;9.03;2.93;;;25.00;99.90;;;-143.14;100.00;56521.75;4967728;28;20460;-74
2022/05/12 13:47:45;;;;;;;4.10;3.20;;;25.10;99.90;;;-143.14;100.00;56521.75;4967822;28;20523;-73
2022/05/12 13:50:15;;;;;;;4.40;3.17;;;25.30;99.90;;;-143.14;100.00;56521.75;4968218;28;20456;-74
2022/05/12 13:52:46;;;;;;;4.40;2.93;;;25.40;99.90;;;-143.14;100.00;56521.75;4967966;28;20471;-75
2022/05/12 13:55:26;;;;;;;5.70;2.90;;;25.50;99.90;;;-143.14;100.00;56521.75;4967985;28;20451;-74
2022/05/12 13:58:12;;;;;;;8.83;3.30;;;25.40;99.90;;;-143.14;100.00;56521.75;4968287;28;20467;-74
2022/05/12 14:00:45;;;;;;;4.13;2.83;;;25.30;99.90;;;-143.14;100.00;56521.75;4968155;28;20488;-75
2022/05/12 14:03:22;;;;;;;5.83;3.47;;;25.30;99.90;;;-143.14;100.00;56521.75;4968032;28;20880;-74
2022/05/12 14:05:53;;;;;;;11.50;3.30;;;25.40;99.90;;;-143.14;100.00;56521.75;4966980;28;20914;-75
2022/05/12 14:08:30;;;;;;;5.90;3.13;;;25.40;99.90;;;-143.14;100.00;56521.75;4967390;28;21016;-74
2022/05/12 14:11:14;;;;;;;4.53;2.80;;;25.40;99.90;;;-143.14;100.00;56521.75;4966795;28;20563;-74
2022/05/12 14:19:32;;;;;;;5.80;3.30;;;25.30;99.90;;;-143.14;100.00;56521.75;4967987;28;20512;-74
2022/05/12 14:22:03;;;;;;;4.23;3.20;;;25.30;99.90;;;-143.14;100.00;56521.75;4967732;28;20472;-75
2022/05/12 14:24:33;;;;;;;7.90;3.10;;;25.30;99.90;;;-143.14;100.00;56521.75;4966897;28;20456;-74
2022/05/12 14:27:02;;;;;;;5.20;3.00;;;25.20;99.90;;;-143.14;100.00;56521.75;4967246;28;20496;-75
2022/05/12 14:29:31;;;;;;;4.27;3.00;;;25.20;99.90;;;-143.14;100.00;56521.75;4967118;28;20464;-74
2022/05/12 14:31:59;;;;;;;12.20;3.43;;;25.20;99.90;;;-143.14;100.00;56521.75;4967397;28;20473;-75
2022/05/12 14:34:28;;;;;;;3.53;2.90;;;25.20;99.90;;;-143.14;100.00;56521.75;4967024;28;20543;-74
2022/05/12 14:37:00;;;;;;;3.13;2.83;;;25.20;99.90;;;-143.14;100.00;56521.75;4967611;28;20543;-75
2022/05/12 14:39:28;;;;;;;6.53;3.30;;;25.00;99.90;;;-143.14;100.00;56521.75;4967502;28;21193;-74
2022/05/12 14:41:55;;;;;;;4.40;3.00;;;25.00;99.90;;;-143.14;100.00;56521.75;4967563;28;20488;-75
2022/05/12 14:44:24;;;;;;;7.77;3.30;;;25.00;99.90;;;-143.14;100.00;56521.75;4967039;28;20937;-74
2022/05/12 14:46:56;;;;;;;4.17;2.80;;;24.90;99.90;;;-143.14;100.00;56521.75;4967218;28;21029;-75
2022/05/12 14:49:30;;;;;;;3.93;2.97;;;24.80;99.90;;;-143.14;100.00;56521.75;4967508;28;20456;-74
2022/05/12 14:52:00;;;;;;;9.50;3.13;;;24.80;99.90;;;-143.14;100.00;56521.75;4966478;28;20575;-76
2022/05/12 14:54:28;;;;;;;3.47;3.10;;;24.80;99.90;;;-143.14;100.00;56521.75;4965206;28;20458;-75